sensor_id;sensor_type;location;lat;lon;timestamp;P1;durP1;ratioP1;P2;durP2;ratioP2
67363;SDS011;54250;45.572;38.086;2023-09-18T00:02:14;3.95;;;2.85;;
67363;SDS011;54250;45.572;38.086;2023-09-18T00:04:40;7.15;;;2.75;;
67363;SDS011;54250;45.572;38.086;2023-09-18T00:07:06;5.88;;;3.25;;
67363;SDS011;54250;45.572;38.086;2023-09-18T00:09:32;6.15;;;3.28;;
67363;SDS011;54250;45.572;38.086;2023-09-18T00:11:58;3.83;;;2.33;;
67363;SDS011;54250;45.572;38.086;2023-09-18T00:14:24;5.78;;;2.55;;
67363;SDS011;54250;45.572;38.086;2023-09-18T00:16:50;4.88;;;3.00;;
67363;SDS011;54250;45.572;38.086;2023-09-18T00:19:17;3.78;;;2.55;;
67363;SDS011;54250;45.572;38.086;2023-09-18T00:21:43;6.72;;;2.63;;
67363;SDS011;54250;45.572;38.086;2023-09-18T00:24:09;5.38;;;3.15;;
67363;SDS011;54250;45.572;38.086;2023-09-18T00:26:35;5.45;;;2.90;;
67363;SDS011;54250;45.572;38.086;2023-09-18T00:29:01;5.45;;;3.22;;
67363;SDS011;54250;45.572;38.086;2023-09-18T00:31:27;4.40;;;3.15;;
67363;SDS011;54250;45.572;38.086;2023-09-18T00:33:54;8.65;;;3.83;;
67363;SDS011;54250;45.572;38.086;2023-09-18T00:36:20;4.22;;;2.90;;
67363;SDS011;54250;45.572;38.086;2023-09-18T00:38:46;5.78;;;3.20;;
67363;SDS011;54250;45.572;38.086;2023-09-18T00:41:12;7.82;;;3.75;;
67363;SDS011;54250;45.572;38.086;2023-09-18T00:43:38;5.45;;;2.90;;
67363;SDS011;54250;45.572;38.086;2023-09-18T00:46:05;4.90;;;3.10;;
67363;SDS011;54250;45.572;38.086;2023-09-18T00:48:31;7.25;;;3.70;;
67363;SDS011;54250;45.572;38.086;2023-09-18T00:50:57;5.85;;;3.60;;
67363;SDS011;54250;45.572;38.086;2023-09-18T00:53:23;4.95;;;3.35;;
67363;SDS011;54250;45.572;38.086;2023-09-18T00:55:52;10.80;;;3.65;;
67363;SDS011;54250;45.572;38.086;2023-09-18T00:58:21;4.57;;;2.80;;
67363;SDS011;54250;45.572;38.086;2023-09-18T01:00:47;4.70;;;2.85;;
67363;SDS011;54250;45.572;38.086;2023-09-18T01:03:16;7.10;;;3.50;;
67363;SDS011;54250;45.572;38.086;2023-09-18T01:05:44;6.75;;;3.42;;
67363;SDS011;54250;45.572;38.086;2023-09-18T01:08:10;7.13;;;3.47;;
67363;SDS011;54250;45.572;38.086;2023-09-18T01:10:39;7.68;;;3.70;;
67363;SDS011;54250;45.572;38.086;2023-09-18T01:13:23;5.60;;;3.50;;
67363;SDS011;54250;45.572;38.086;2023-09-18T01:15:57;5.60;;;2.90;;
67363;SDS011;54250;45.572;38.086;2023-09-18T01:18:35;7.32;;;3.78;;
67363;SDS011;54250;45.572;38.086;2023-09-18T01:21:01;6.15;;;3.30;;
67363;SDS011;54250;45.572;38.086;2023-09-18T01:23:27;6.25;;;3.40;;
67363;SDS011;54250;45.572;38.086;2023-09-18T01:25:53;5.97;;;3.35;;
67363;SDS011;54250;45.572;38.086;2023-09-18T01:28:19;4.35;;;3.10;;
67363;SDS011;54250;45.572;38.086;2023-09-18T01:30:45;4.70;;;3.30;;
67363;SDS011;54250;45.572;38.086;2023-09-18T01:33:11;6.05;;;3.20;;
67363;SDS011;54250;45.572;38.086;2023-09-18T01:35:39;7.63;;;2.75;;
67363;SDS011;54250;45.572;38.086;2023-09-18T01:38:06;6.13;;;3.53;;
67363;SDS011;54250;45.572;38.086;2023-09-18T01:40:32;5.63;;;3.10;;
67363;SDS011;54250;45.572;38.086;2023-09-18T01:42:58;6.93;;;3.40;;
67363;SDS011;54250;45.572;38.086;2023-09-18T01:45:24;5.57;;;3.42;;
67363;SDS011;54250;45.572;38.086;2023-09-18T01:47:50;9.32;;;4.03;;
67363;SDS011;54250;45.572;38.086;2023-09-18T01:50:17;5.32;;;3.22;;
67363;SDS011;54250;45.572;38.086;2023-09-18T01:52:43;9.30;;;3.92;;
67363;SDS011;54250;45.572;38.086;2023-09-18T01:55:09;6.50;;;3.88;;
67363;SDS011;54250;45.572;38.086;2023-09-18T01:57:35;6.57;;;3.78;;
67363;SDS011;54250;45.572;38.086;2023-09-18T02:00:02;6.28;;;3.50;;
67363;SDS011;54250;45.572;38.086;2023-09-18T02:02:37;5.55;;;3.40;;
67363;SDS011;54250;45.572;38.086;2023-09-18T02:05:04;3.88;;;3.13;;
67363;SDS011;54250;45.572;38.086;2023-09-18T02:07:30;7.25;;;3.65;;
67363;SDS011;54250;45.572;38.086;2023-09-18T02:09:57;6.00;;;3.55;;
67363;SDS011;54250;45.572;38.086;2023-09-18T02:12:23;5.35;;;3.38;;
67363;SDS011;54250;45.572;38.086;2023-09-18T02:14:49;6.30;;;3.63;;
67363;SDS011;54250;45.572;38.086;2023-09-18T02:17:15;4.88;;;3.47;;
67363;SDS011;54250;45.572;38.086;2023-09-18T02:19:41;5.38;;;3.75;;
67363;SDS011;54250;45.572;38.086;2023-09-18T02:22:08;5.75;;;3.60;;
67363;SDS011;54250;45.572;38.086;2023-09-18T02:24:34;8.65;;;4.00;;
67363;SDS011;54250;45.572;38.086;2023-09-18T02:27:03;6.40;;;4.20;;
67363;SDS011;54250;45.572;38.086;2023-09-18T02:29:30;7.25;;;3.67;;
67363;SDS011;54250;45.572;38.086;2023-09-18T02:31:56;8.13;;;3.85;;
67363;SDS011;54250;45.572;38.086;2023-09-18T02:34:24;5.13;;;3.47;;
67363;SDS011;54250;45.572;38.086;2023-09-18T02:36:50;7.20;;;4.10;;
67363;SDS011;54250;45.572;38.086;2023-09-18T02:39:16;5.65;;;3.92;;
67363;SDS011;54250;45.572;38.086;2023-09-18T02:41:42;12.40;;;4.82;;
67363;SDS011;54250;45.572;38.086;2023-09-18T02:44:08;5.03;;;3.75;;
67363;SDS011;54250;45.572;38.086;2023-09-18T02:46:34;7.40;;;3.75;;
67363;SDS011;54250;45.572;38.086;2023-09-18T02:49:02;9.10;;;3.95;;
67363;SDS011;54250;45.572;38.086;2023-09-18T02:51:28;6.50;;;3.75;;
67363;SDS011;54250;45.572;38.086;2023-09-18T02:53:57;6.68;;;4.20;;
67363;SDS011;54250;45.572;38.086;2023-09-18T02:56:23;8.93;;;4.13;;
67363;SDS011;54250;45.572;38.086;2023-09-18T02:58:49;10.68;;;4.10;;
67363;SDS011;54250;45.572;38.086;2023-09-18T03:01:15;8.07;;;4.20;;
67363;SDS011;54250;45.572;38.086;2023-09-18T03:03:41;15.75;;;4.22;;
67363;SDS011;54250;45.572;38.086;2023-09-18T03:06:07;7.95;;;4.20;;
67363;SDS011;54250;45.572;38.086;2023-09-18T03:08:33;8.05;;;4.55;;
67363;SDS011;54250;45.572;38.086;2023-09-18T03:11:02;8.70;;;4.03;;
67363;SDS011;54250;45.572;38.086;2023-09-18T03:13:31;6.82;;;4.00;;
67363;SDS011;54250;45.572;38.086;2023-09-18T03:15:57;6.10;;;3.80;;
67363;SDS011;54250;45.572;38.086;2023-09-18T03:18:26;5.80;;;3.38;;
67363;SDS011;54250;45.572;38.086;2023-09-18T03:20:51;9.05;;;3.67;;
67363;SDS011;54250;45.572;38.086;2023-09-18T03:23:18;7.55;;;3.53;;
67363;SDS011;54250;45.572;38.086;2023-09-18T03:25:44;7.57;;;4.82;;
67363;SDS011;54250;45.572;38.086;2023-09-18T03:28:10;5.72;;;3.92;;
67363;SDS011;54250;45.572;38.086;2023-09-18T03:30:36;5.38;;;3.67;;
67363;SDS011;54250;45.572;38.086;2023-09-18T03:33:02;6.72;;;4.25;;
67363;SDS011;54250;45.572;38.086;2023-09-18T03:35:31;7.97;;;3.75;;
67363;SDS011;54250;45.572;38.086;2023-09-18T03:38:10;10.20;;;3.83;;
67363;SDS011;54250;45.572;38.086;2023-09-18T03:40:36;8.75;;;4.38;;
67363;SDS011;54250;45.572;38.086;2023-09-18T03:43:02;9.50;;;4.32;;
67363;SDS011;54250;45.572;38.086;2023-09-18T03:45:29;8.38;;;4.38;;
67363;SDS011;54250;45.572;38.086;2023-09-18T03:47:55;7.97;;;4.78;;
67363;SDS011;54250;45.572;38.086;2023-09-18T03:50:21;14.15;;;5.18;;
67363;SDS011;54250;45.572;38.086;2023-09-18T03:52:47;10.43;;;4.35;;
67363;SDS011;54250;45.572;38.086;2023-09-18T03:55:13;5.25;;;3.45;;
67363;SDS011;54250;45.572;38.086;2023-09-18T03:57:41;9.23;;;4.20;;
67363;SDS011;54250;45.572;38.086;2023-09-18T04:00:08;9.88;;;4.35;;
67363;SDS011;54250;45.572;38.086;2023-09-18T04:02:37;14.00;;;4.00;;
67363;SDS011;54250;45.572;38.086;2023-09-18T04:05:03;6.65;;;4.00;;
67363;SDS011;54250;45.572;38.086;2023-09-18T04:07:30;5.97;;;3.53;;
67363;SDS011;54250;45.572;38.086;2023-09-18T04:09:57;9.32;;;3.72;;
67363;SDS011;54250;45.572;38.086;2023-09-18T04:12:24;8.13;;;3.67;;
67363;SDS011;54250;45.572;38.086;2023-09-18T04:14:50;6.00;;;3.50;;
67363;SDS011;54250;45.572;38.086;2023-09-18T04:17:16;5.78;;;3.40;;
67363;SDS011;54250;45.572;38.086;2023-09-18T04:19:43;8.10;;;4.28;;
67363;SDS011;54250;45.572;38.086;2023-09-18T04:22:09;5.90;;;3.95;;
67363;SDS011;54250;45.572;38.086;2023-09-18T04:24:35;6.20;;;4.28;;
67363;SDS011;54250;45.572;38.086;2023-09-18T04:27:01;10.65;;;5.00;;
67363;SDS011;54250;45.572;38.086;2023-09-18T04:29:28;8.15;;;4.20;;
67363;SDS011;54250;45.572;38.086;2023-09-18T04:31:54;8.38;;;4.30;;
67363;SDS011;54250;45.572;38.086;2023-09-18T04:34:20;5.55;;;3.65;;
67363;SDS011;54250;45.572;38.086;2023-09-18T04:36:48;6.72;;;3.67;;
67363;SDS011;54250;45.572;38.086;2023-09-18T04:39:15;8.43;;;4.25;;
67363;SDS011;54250;45.572;38.086;2023-09-18T04:41:41;7.25;;;4.10;;
67363;SDS011;54250;45.572;38.086;2023-09-18T04:44:07;8.68;;;4.47;;
67363;SDS011;54250;45.572;38.086;2023-09-18T04:46:34;8.32;;;5.05;;
67363;SDS011;54250;45.572;38.086;2023-09-18T04:49:01;10.60;;;4.90;;
67363;SDS011;54250;45.572;38.086;2023-09-18T04:51:30;11.80;;;6.13;;
67363;SDS011;54250;45.572;38.086;2023-09-18T04:53:58;35.20;;;16.05;;
67363;SDS011;54250;45.572;38.086;2023-09-18T04:56:25;50.55;;;19.42;;
67363;SDS011;54250;45.572;38.086;2023-09-18T04:58:52;33.33;;;14.43;;
67363;SDS011;54250;45.572;38.086;2023-09-18T05:01:19;22.90;;;8.77;;
67363;SDS011;54250;45.572;38.086;2023-09-18T05:03:46;20.35;;;8.02;;
67363;SDS011;54250;45.572;38.086;2023-09-18T05:06:14;20.60;;;10.43;;
67363;SDS011;54250;45.572;38.086;2023-09-18T05:08:41;16.42;;;7.63;;
67363;SDS011;54250;45.572;38.086;2023-09-18T05:11:07;14.68;;;5.63;;
67363;SDS011;54250;45.572;38.086;2023-09-18T05:13:33;6.25;;;3.88;;
67363;SDS011;54250;45.572;38.086;2023-09-18T05:15:59;8.68;;;4.80;;
67363;SDS011;54250;45.572;38.086;2023-09-18T05:18:26;4.68;;;3.45;;
67363;SDS011;54250;45.572;38.086;2023-09-18T05:20:52;6.75;;;3.08;;
67363;SDS011;54250;45.572;38.086;2023-09-18T05:23:18;5.00;;;3.42;;
67363;SDS011;54250;45.572;38.086;2023-09-18T05:25:44;5.97;;;3.30;;
67363;SDS011;54250;45.572;38.086;2023-09-18T05:28:10;13.10;;;5.18;;
67363;SDS011;54250;45.572;38.086;2023-09-18T05:30:36;4.53;;;2.38;;
67363;SDS011;54250;45.572;38.086;2023-09-18T05:33:06;4.32;;;2.67;;
67363;SDS011;54250;45.572;38.086;2023-09-18T05:35:34;15.45;;;3.33;;
67363;SDS011;54250;45.572;38.086;2023-09-18T05:38:03;4.75;;;2.50;;
67363;SDS011;54250;45.572;38.086;2023-09-18T05:40:30;3.72;;;2.80;;
67363;SDS011;54250;45.572;38.086;2023-09-18T05:42:57;3.17;;;2.25;;
67363;SDS011;54250;45.572;38.086;2023-09-18T05:45:23;4.15;;;2.50;;
67363;SDS011;54250;45.572;38.086;2023-09-18T05:47:50;3.20;;;1.98;;
67363;SDS011;54250;45.572;38.086;2023-09-18T05:50:18;3.05;;;2.20;;
67363;SDS011;54250;45.572;38.086;2023-09-18T05:52:45;5.32;;;2.38;;
67363;SDS011;54250;45.572;38.086;2023-09-18T05:55:12;13.93;;;5.57;;
67363;SDS011;54250;45.572;38.086;2023-09-18T05:57:41;5.18;;;2.88;;
67363;SDS011;54250;45.572;38.086;2023-09-18T06:00:07;5.85;;;3.05;;
67363;SDS011;54250;45.572;38.086;2023-09-18T06:02:38;5.57;;;2.78;;
67363;SDS011;54250;45.572;38.086;2023-09-18T06:05:05;8.40;;;2.80;;
67363;SDS011;54250;45.572;38.086;2023-09-18T06:07:32;4.50;;;2.50;;
67363;SDS011;54250;45.572;38.086;2023-09-18T06:09:58;3.17;;;1.88;;
67363;SDS011;54250;45.572;38.086;2023-09-18T06:12:24;4.35;;;1.98;;
67363;SDS011;54250;45.572;38.086;2023-09-18T06:14:51;9.07;;;3.15;;
67363;SDS011;54250;45.572;38.086;2023-09-18T06:17:17;4.18;;;1.67;;
67363;SDS011;54250;45.572;38.086;2023-09-18T06:19:44;3.67;;;1.67;;
67363;SDS011;54250;45.572;38.086;2023-09-18T06:22:13;2.67;;;1.77;;
67363;SDS011;54250;45.572;38.086;2023-09-18T06:24:39;3.05;;;1.80;;
67363;SDS011;54250;45.572;38.086;2023-09-18T06:27:05;2.08;;;1.80;;
67363;SDS011;54250;45.572;38.086;2023-09-18T06:29:32;2.65;;;1.70;;
67363;SDS011;54250;45.572;38.086;2023-09-18T06:31:58;2.63;;;1.80;;
67363;SDS011;54250;45.572;38.086;2023-09-18T06:34:24;3.55;;;1.90;;
67363;SDS011;54250;45.572;38.086;2023-09-18T06:36:51;2.53;;;1.50;;
67363;SDS011;54250;45.572;38.086;2023-09-18T06:39:17;2.00;;;1.65;;
67363;SDS011;54250;45.572;38.086;2023-09-18T06:41:42;8.27;;;1.58;;
67363;SDS011;54250;45.572;38.086;2023-09-18T06:44:11;5.65;;;1.80;;
67363;SDS011;54250;45.572;38.086;2023-09-18T06:46:37;11.88;;;1.92;;
67363;SDS011;54250;45.572;38.086;2023-09-18T06:49:03;3.38;;;1.92;;
67363;SDS011;54250;45.572;38.086;2023-09-18T06:51:29;4.07;;;1.50;;
67363;SDS011;54250;45.572;38.086;2023-09-18T06:53:55;1.65;;;1.20;;
67363;SDS011;54250;45.572;38.086;2023-09-18T06:56:25;2.42;;;1.40;;
67363;SDS011;54250;45.572;38.086;2023-09-18T06:58:51;1.75;;;1.52;;
67363;SDS011;54250;45.572;38.086;2023-09-18T07:01:18;2.05;;;1.48;;
67363;SDS011;54250;45.572;38.086;2023-09-18T07:03:45;1.70;;;1.50;;
67363;SDS011;54250;45.572;38.086;2023-09-18T07:06:15;6.72;;;1.60;;
67363;SDS011;54250;45.572;38.086;2023-09-18T07:08:44;1.55;;;1.42;;
67363;SDS011;54250;45.572;38.086;2023-09-18T07:11:10;6.55;;;1.42;;
67363;SDS011;54250;45.572;38.086;2023-09-18T07:13:37;3.38;;;1.60;;
67363;SDS011;54250;45.572;38.086;2023-09-18T07:16:03;4.65;;;1.55;;
67363;SDS011;54250;45.572;38.086;2023-09-18T07:18:29;2.50;;;1.40;;
67363;SDS011;54250;45.572;38.086;2023-09-18T07:20:55;2.25;;;1.45;;
67363;SDS011;54250;45.572;38.086;2023-09-18T07:23:21;4.18;;;1.60;;
67363;SDS011;54250;45.572;38.086;2023-09-18T07:25:47;1.80;;;1.15;;
67363;SDS011;54250;45.572;38.086;2023-09-18T07:28:13;2.30;;;1.50;;
67363;SDS011;54250;45.572;38.086;2023-09-18T07:30:43;3.70;;;1.40;;
67363;SDS011;54250;45.572;38.086;2023-09-18T07:33:09;0.70;;;0.70;;
67363;SDS011;54250;45.572;38.086;2023-09-18T07:35:36;2.20;;;1.40;;
67363;SDS011;54250;45.572;38.086;2023-09-18T07:38:03;1.20;;;1.10;;
67363;SDS011;54250;45.572;38.086;2023-09-18T07:40:29;2.13;;;1.67;;
67363;SDS011;54250;45.572;38.086;2023-09-18T07:42:55;8.25;;;1.48;;
67363;SDS011;54250;45.572;38.086;2023-09-18T07:45:22;5.07;;;1.60;;
67363;SDS011;54250;45.572;38.086;2023-09-18T07:47:49;3.15;;;1.63;;
67363;SDS011;54250;45.572;38.086;2023-09-18T07:50:15;5.45;;;1.92;;
67363;SDS011;54250;45.572;38.086;2023-09-18T07:52:42;1.88;;;1.00;;
67363;SDS011;54250;45.572;38.086;2023-09-18T07:55:08;4.38;;;1.83;;
67363;SDS011;54250;45.572;38.086;2023-09-18T07:57:35;1.63;;;1.35;;
67363;SDS011;54250;45.572;38.086;2023-09-18T08:00:03;1.38;;;1.27;;
67363;SDS011;54250;45.572;38.086;2023-09-18T08:02:37;1.10;;;1.00;;
67363;SDS011;54250;45.572;38.086;2023-09-18T08:05:04;1.98;;;0.90;;
67363;SDS011;54250;45.572;38.086;2023-09-18T08:07:30;2.08;;;1.30;;
67363;SDS011;54250;45.572;38.086;2023-09-18T08:09:57;2.78;;;1.30;;
67363;SDS011;54250;45.572;38.086;2023-09-18T08:12:23;4.75;;;1.60;;
67363;SDS011;54250;45.572;38.086;2023-09-18T08:14:49;1.52;;;1.33;;
67363;SDS011;54250;45.572;38.086;2023-09-18T08:17:15;2.72;;;1.50;;
67363;SDS011;54250;45.572;38.086;2023-09-18T08:19:42;1.15;;;0.98;;
67363;SDS011;54250;45.572;38.086;2023-09-18T08:22:09;2.53;;;1.33;;
67363;SDS011;54250;45.572;38.086;2023-09-18T08:24:37;1.98;;;1.25;;
67363;SDS011;54250;45.572;38.086;2023-09-18T08:27:03;2.13;;;1.65;;
67363;SDS011;54250;45.572;38.086;2023-09-18T08:29:29;0.90;;;0.80;;
67363;SDS011;54250;45.572;38.086;2023-09-18T08:31:55;3.20;;;1.33;;
67363;SDS011;54250;45.572;38.086;2023-09-18T08:34:21;0.55;;;0.55;;
67363;SDS011;54250;45.572;38.086;2023-09-18T08:36:50;2.20;;;1.00;;
67363;SDS011;54250;45.572;38.086;2023-09-18T08:39:15;1.55;;;1.02;;
67363;SDS011;54250;45.572;38.086;2023-09-18T08:41:42;2.45;;;0.88;;
67363;SDS011;54250;45.572;38.086;2023-09-18T08:44:08;4.38;;;1.08;;
67363;SDS011;54250;45.572;38.086;2023-09-18T08:46:36;2.28;;;0.90;;
67363;SDS011;54250;45.572;38.086;2023-09-18T08:49:02;4.88;;;1.48;;
67363;SDS011;54250;45.572;38.086;2023-09-18T08:51:30;4.43;;;1.15;;
67363;SDS011;54250;45.572;38.086;2023-09-18T08:53:57;10.30;;;1.15;;
67363;SDS011;54250;45.572;38.086;2023-09-18T08:56:24;1.23;;;0.90;;
67363;SDS011;54250;45.572;38.086;2023-09-18T08:58:50;4.63;;;1.05;;
67363;SDS011;54250;45.572;38.086;2023-09-18T09:01:17;1.65;;;1.00;;
67363;SDS011;54250;45.572;38.086;2023-09-18T09:03:43;7.97;;;0.90;;
67363;SDS011;54250;45.572;38.086;2023-09-18T09:06:11;1.55;;;0.65;;
67363;SDS011;54250;45.572;38.086;2023-09-18T09:08:37;13.15;;;8.50;;
67363;SDS011;54250;45.572;38.086;2023-09-18T09:11:04;2.05;;;1.20;;
67363;SDS011;54250;45.572;38.086;2023-09-18T09:13:30;1.70;;;1.00;;
67363;SDS011;54250;45.572;38.086;2023-09-18T09:15:57;4.03;;;1.48;;
67363;SDS011;54250;45.572;38.086;2023-09-18T09:18:24;2.58;;;0.90;;
67363;SDS011;54250;45.572;38.086;2023-09-18T09:21:02;1.02;;;0.80;;
67363;SDS011;54250;45.572;38.086;2023-09-18T09:26:18;1.60;;;1.40;;
67363;SDS011;54250;45.572;38.086;2023-09-18T09:28:45;1.35;;;1.00;;
67363;SDS011;54250;45.572;38.086;2023-09-18T09:31:22;1.48;;;0.65;;
67363;SDS011;54250;45.572;38.086;2023-09-18T09:33:50;1.20;;;1.10;;
67363;SDS011;54250;45.572;38.086;2023-09-18T09:36:21;1.17;;;1.08;;
67363;SDS011;54250;45.572;38.086;2023-09-18T09:38:47;1.40;;;0.90;;
67363;SDS011;54250;45.572;38.086;2023-09-18T09:41:19;6.10;;;1.07;;
67363;SDS011;54250;45.572;38.086;2023-09-18T09:43:46;2.15;;;1.00;;
67363;SDS011;54250;45.572;38.086;2023-09-18T09:46:16;2.28;;;1.10;;
67363;SDS011;54250;45.572;38.086;2023-09-18T09:49:02;2.25;;;0.93;;
67363;SDS011;54250;45.572;38.086;2023-09-18T09:51:30;1.25;;;1.13;;
67363;SDS011;54250;45.572;38.086;2023-09-18T09:53:56;0.73;;;0.73;;
67363;SDS011;54250;45.572;38.086;2023-09-18T09:59:28;3.40;;;1.00;;
67363;SDS011;54250;45.572;38.086;2023-09-18T10:01:55;2.53;;;1.20;;
67363;SDS011;54250;45.572;38.086;2023-09-18T10:04:23;1.95;;;1.10;;
67363;SDS011;54250;45.572;38.086;2023-09-18T10:07:06;1.98;;;1.35;;
67363;SDS011;54250;45.572;38.086;2023-09-18T10:09:38;5.53;;;1.00;;
67363;SDS011;54250;45.572;38.086;2023-09-18T10:12:10;1.13;;;1.00;;
67363;SDS011;54250;45.572;38.086;2023-09-18T10:14:36;5.38;;;1.00;;
67363;SDS011;54250;45.572;38.086;2023-09-18T10:17:09;1.48;;;1.27;;
67363;SDS011;54250;45.572;38.086;2023-09-18T10:19:49;4.55;;;1.40;;
67363;SDS011;54250;45.572;38.086;2023-09-18T10:22:42;1.30;;;1.10;;
67363;SDS011;54250;45.572;38.086;2023-09-18T10:25:23;4.25;;;1.10;;
67363;SDS011;54250;45.572;38.086;2023-09-18T10:27:51;5.10;;;1.08;;
67363;SDS011;54250;45.572;38.086;2023-09-18T10:30:24;1.80;;;1.10;;
67363;SDS011;54250;45.572;38.086;2023-09-18T10:32:50;1.15;;;0.90;;
67363;SDS011;54250;45.572;38.086;2023-09-18T10:35:17;0.80;;;0.80;;
67363;SDS011;54250;45.572;38.086;2023-09-18T10:37:45;0.73;;;0.73;;
67363;SDS011;54250;45.572;38.086;2023-09-18T10:40:16;1.48;;;1.23;;
67363;SDS011;54250;45.572;38.086;2023-09-18T10:42:42;8.48;;;1.10;;
67363;SDS011;54250;45.572;38.086;2023-09-18T10:45:12;1.75;;;1.05;;
67363;SDS011;54250;45.572;38.086;2023-09-18T10:47:40;1.05;;;0.95;;
67363;SDS011;54250;45.572;38.086;2023-09-18T10:50:10;1.48;;;1.00;;
67363;SDS011;54250;45.572;38.086;2023-09-18T10:52:43;1.75;;;0.90;;
67363;SDS011;54250;45.572;38.086;2023-09-18T10:55:13;3.60;;;0.93;;
67363;SDS011;54250;45.572;38.086;2023-09-18T10:58:12;1.95;;;1.20;;
67363;SDS011;54250;45.572;38.086;2023-09-18T11:00:32;5.78;;;1.25;;
67363;SDS011;54250;45.572;38.086;2023-09-18T11:03:11;2.35;;;0.77;;
67363;SDS011;54250;45.572;38.086;2023-09-18T11:05:43;1.48;;;1.13;;
67363;SDS011;54250;45.572;38.086;2023-09-18T11:13:40;1.30;;;0.82;;
67363;SDS011;54250;45.572;38.086;2023-09-18T11:18:51;1.27;;;1.00;;
67363;SDS011;54250;45.572;38.086;2023-09-18T11:21:23;10.32;;;1.42;;
67363;SDS011;54250;45.572;38.086;2023-09-18T11:26:42;1.63;;;1.10;;
67363;SDS011;54250;45.572;38.086;2023-09-18T11:29:09;1.95;;;1.30;;
67363;SDS011;54250;45.572;38.086;2023-09-18T11:31:41;1.30;;;1.20;;
67363;SDS011;54250;45.572;38.086;2023-09-18T11:34:21;1.98;;;1.30;;
67363;SDS011;54250;45.572;38.086;2023-09-18T11:37:00;4.30;;;1.60;;
67363;SDS011;54250;45.572;38.086;2023-09-18T11:39:39;1.55;;;1.20;;
67363;SDS011;54250;45.572;38.086;2023-09-18T11:42:09;6.40;;;1.48;;
67363;SDS011;54250;45.572;38.086;2023-09-18T11:44:51;1.95;;;1.25;;
67363;SDS011;54250;45.572;38.086;2023-09-18T11:47:18;5.00;;;1.40;;
67363;SDS011;54250;45.572;38.086;2023-09-18T11:49:58;4.50;;;1.25;;
67363;SDS011;54250;45.572;38.086;2023-09-18T11:52:28;1.20;;;1.10;;
67363;SDS011;54250;45.572;38.086;2023-09-18T11:54:58;2.20;;;1.20;;
67363;SDS011;54250;45.572;38.086;2023-09-18T11:57:25;4.85;;;1.58;;
67363;SDS011;54250;45.572;38.086;2023-09-18T11:59:53;1.98;;;1.67;;
67363;SDS011;54250;45.572;38.086;2023-09-18T12:05:21;4.25;;;1.50;;
67363;SDS011;54250;45.572;38.086;2023-09-18T12:07:50;9.45;;;1.50;;
67363;SDS011;54250;45.572;38.086;2023-09-18T12:10:16;1.63;;;0.90;;
67363;SDS011;54250;45.572;38.086;2023-09-18T12:12:44;4.18;;;1.20;;
67363;SDS011;54250;45.572;38.086;2023-09-18T12:15:14;1.08;;;0.95;;
67363;SDS011;54250;45.572;38.086;2023-09-18T12:17:42;1.65;;;0.70;;
67363;SDS011;54250;45.572;38.086;2023-09-18T12:20:17;1.00;;;0.90;;
67363;SDS011;54250;45.572;38.086;2023-09-18T12:22:47;3.45;;;1.30;;
67363;SDS011;54250;45.572;38.086;2023-09-18T12:25:14;1.77;;;1.02;;
67363;SDS011;54250;45.572;38.086;2023-09-18T12:27:42;1.05;;;0.93;;
67363;SDS011;54250;45.572;38.086;2023-09-18T12:30:08;1.17;;;1.00;;
67363;SDS011;54250;45.572;38.086;2023-09-18T12:32:38;4.18;;;1.50;;
67363;SDS011;54250;45.572;38.086;2023-09-18T12:35:07;3.20;;;1.40;;
67363;SDS011;54250;45.572;38.086;2023-09-18T12:37:34;1.70;;;1.00;;
67363;SDS011;54250;45.572;38.086;2023-09-18T12:40:06;0.95;;;0.90;;
67363;SDS011;54250;45.572;38.086;2023-09-18T12:42:36;1.38;;;1.27;;
67363;SDS011;54250;45.572;38.086;2023-09-18T12:45:08;1.48;;;1.20;;
67363;SDS011;54250;45.572;38.086;2023-09-18T12:47:35;1.38;;;1.02;;
67363;SDS011;54250;45.572;38.086;2023-09-18T12:50:07;1.48;;;1.10;;
67363;SDS011;54250;45.572;38.086;2023-09-18T12:52:35;2.33;;;1.33;;
67363;SDS011;54250;45.572;38.086;2023-09-18T12:55:01;1.70;;;1.17;;
67363;SDS011;54250;45.572;38.086;2023-09-18T12:57:29;3.42;;;1.00;;
67363;SDS011;54250;45.572;38.086;2023-09-18T12:59:56;2.45;;;1.10;;
67363;SDS011;54250;45.572;38.086;2023-09-18T13:02:22;1.10;;;1.00;;
67363;SDS011;54250;45.572;38.086;2023-09-18T13:04:55;5.15;;;1.17;;
67363;SDS011;54250;45.572;38.086;2023-09-18T13:07:22;5.07;;;1.20;;
67363;SDS011;54250;45.572;38.086;2023-09-18T13:09:58;3.88;;;2.00;;
67363;SDS011;54250;45.572;38.086;2023-09-18T13:15:30;1.73;;;1.17;;
67363;SDS011;54250;45.572;38.086;2023-09-18T13:17:58;4.22;;;1.10;;
67363;SDS011;54250;45.572;38.086;2023-09-18T13:20:35;2.53;;;1.13;;
67363;SDS011;54250;45.572;38.086;2023-09-18T13:23:01;5.57;;;1.27;;
67363;SDS011;54250;45.572;38.086;2023-09-18T13:25:30;3.03;;;1.45;;
67363;SDS011;54250;45.572;38.086;2023-09-18T13:27:59;3.28;;;1.20;;
67363;SDS011;54250;45.572;38.086;2023-09-18T13:30:27;2.45;;;1.50;;
67363;SDS011;54250;45.572;38.086;2023-09-18T13:33:01;4.75;;;1.00;;
67363;SDS011;54250;45.572;38.086;2023-09-18T13:35:29;2.10;;;1.05;;
67363;SDS011;54250;45.572;38.086;2023-09-18T13:37:55;1.88;;;1.02;;
67363;SDS011;54250;45.572;38.086;2023-09-18T13:40:21;2.50;;;1.00;;
67363;SDS011;54250;45.572;38.086;2023-09-18T13:42:47;1.60;;;1.20;;
67363;SDS011;54250;45.572;38.086;2023-09-18T13:45:14;7.05;;;0.90;;
67363;SDS011;54250;45.572;38.086;2023-09-18T13:47:43;1.48;;;0.80;;
67363;SDS011;54250;45.572;38.086;2023-09-18T13:50:09;1.30;;;1.20;;
67363;SDS011;54250;45.572;38.086;2023-09-18T13:52:35;3.60;;;1.23;;
67363;SDS011;54250;45.572;38.086;2023-09-18T13:55:02;0.88;;;0.88;;
67363;SDS011;54250;45.572;38.086;2023-09-18T13:57:31;4.25;;;1.25;;
67363;SDS011;54250;45.572;38.086;2023-09-18T13:59:57;1.58;;;1.30;;
67363;SDS011;54250;45.572;38.086;2023-09-18T14:02:23;1.02;;;0.90;;
67363;SDS011;54250;45.572;38.086;2023-09-18T14:04:52;1.42;;;1.08;;
67363;SDS011;54250;45.572;38.086;2023-09-18T14:07:19;1.30;;;1.20;;
67363;SDS011;54250;45.572;38.086;2023-09-18T14:09:46;2.92;;;1.33;;
67363;SDS011;54250;45.572;38.086;2023-09-18T14:12:11;2.40;;;1.25;;
67363;SDS011;54250;45.572;38.086;2023-09-18T14:14:37;2.15;;;0.80;;
67363;SDS011;54250;45.572;38.086;2023-09-18T14:17:05;1.95;;;1.20;;
67363;SDS011;54250;45.572;38.086;2023-09-18T14:19:31;1.17;;;0.82;;
67363;SDS011;54250;45.572;38.086;2023-09-18T14:21:57;1.30;;;1.05;;
67363;SDS011;54250;45.572;38.086;2023-09-18T14:24:29;5.72;;;0.85;;
67363;SDS011;54250;45.572;38.086;2023-09-18T14:26:55;3.92;;;1.02;;
67363;SDS011;54250;45.572;38.086;2023-09-18T14:29:21;1.92;;;1.02;;
67363;SDS011;54250;45.572;38.086;2023-09-18T14:31:48;2.67;;;1.05;;
67363;SDS011;54250;45.572;38.086;2023-09-18T14:34:13;1.33;;;1.02;;
67363;SDS011;54250;45.572;38.086;2023-09-18T14:36:39;1.55;;;1.20;;
67363;SDS011;54250;45.572;38.086;2023-09-18T14:39:06;1.63;;;1.10;;
67363;SDS011;54250;45.572;38.086;2023-09-18T14:41:35;1.80;;;1.00;;
67363;SDS011;54250;45.572;38.086;2023-09-18T14:44:02;1.73;;;1.27;;
67363;SDS011;54250;45.572;38.086;2023-09-18T14:46:30;1.20;;;1.08;;
67363;SDS011;54250;45.572;38.086;2023-09-18T14:48:59;3.08;;;1.20;;
67363;SDS011;54250;45.572;38.086;2023-09-18T14:51:26;1.40;;;1.10;;
67363;SDS011;54250;45.572;38.086;2023-09-18T14:53:57;1.38;;;1.08;;
67363;SDS011;54250;45.572;38.086;2023-09-18T14:56:24;2.85;;;1.58;;
67363;SDS011;54250;45.572;38.086;2023-09-18T14:58:49;3.92;;;1.60;;
67363;SDS011;54250;45.572;38.086;2023-09-18T15:01:20;1.13;;;1.02;;